Meteo Giornale » Osservazioni meteo Ungheria » Pecs-Pogany
ore: 19:45 - Osservazioni Meteo Pecs-Pogany
Lat. 46° 6' N Lon. 18° 14' E Alt. 201 metri s.l.m.
24 °C
Sereno
Temp. 24 Ore
17 °C
29 °C
Nord
7.4 Km/h
Dew point 10 °C
Umidità 41 %
Visibilità 10 Km
Il sole sorge alle ore 06:07
Il sole tramonta alle ore 19:26
| Data e Ora | Cielo e Fenomeni | T °C | DP °C | Um. % | Pres. hPa | Vis. km | Vento km/h | |
|---|---|---|---|---|---|---|---|---|
| Oggi h: 19:45 | Sereno | 24 | 10 | 41 | 1020 | 10 | N 7.4 | |
| Oggi h: 19:15 | Sereno | 25 | 10 | 38 | 1019 | 10 | N 9.3 | |
| Oggi h: 18:45 | Sereno | 27 | 9 | 32 | 1019 | 10 | N 11.1 | |
| Oggi h: 18:15 | Sereno | 27 | 8 | 30 | 1019 | 10 | N 13 | |
| Oggi h: 17:45 | Sereno | 28 | 7 | 26 | 1019 | 10 | N 13 | |
| Oggi h: 17:15 | Sereno | 28 | 8 | 28 | 1019 | 10 | NO 14.8 | |
| Oggi h: 16:45 | Sereno | 29 | 9 | 28 | 1019 | 10 | N/NO 9.3 | |
| Oggi h: 16:15 | Sereno | 28 | 8 | 28 | 1020 | 10 | N/NO 13 | |
| Oggi h: 15:45 | Sereno | 28 | 7 | 26 | 1020 | 10 | N/NO 9.3 | |
| Oggi h: 15:15 | Sereno | 28 | 7 | 26 | 1020 | 10 | O/NO 13 | |
| Oggi h: 14:45 | Sereno | 27 | 8 | 30 | 1020 | 10 | N/NO 9.3 | |
| Oggi h: 14:15 | Sereno | 27 | 10 | 34 | 1021 | 10 | N 9.3 | |
| Oggi h: 13:45 | Sereno | 27 | 10 | 34 | 1021 | 10 | N 9.3 | |
| Oggi h: 13:15 | Sereno | 26 | 11 | 39 | 1021 | 10 | N 13 | |
| Oggi h: 12:45 | Sereno | 26 | 10 | 36 | 1021 | 10 | N 16.7 | |
| Oggi h: 12:15 | Sereno | 26 | 12 | 41 | 1021 | 10 | N 18.5 | |
| Oggi h: 11:45 | Sereno | 25 | 12 | 44 | 1021 | 10 | N 14.8 | |
| Oggi h: 11:15 | Sereno | 25 | 13 | 47 | 1021 | 10 | N 16.7 | |
| Oggi h: 10:45 | Sereno | 23 | 13 | 53 | 1021 | 10 | N 16.7 | |
| Oggi h: 10:15 | Sereno | 23 | 15 | 60 | 1021 | 10 | NO 14.8 | |
| Oggi h: 09:45 | Sereno | 22 | 15 | 64 | 1021 | 10 | NO 16.7 | |
| Oggi h: 09:15 | Sereno | 21 | 15 | 68 | 1021 | 10 | O/NO 13 | |
| Oggi h: 08:45 | Sereno | 20 | 15 | 72 | 1021 | 10 | O 13 | |
| Oggi h: 08:15 | Sereno | 19 | 16 | 82 | 1021 | 10 | O/SO 11.1 | |
| Oggi h: 07:15 | Sereno | 18 | 15 | 82 | 1020 | 10 | SO 9.3 | |
| Oggi h: 06:45 | Sereno | 17 | 15 | 88 | 1019 | 10 | S/SO 9.3 | |
| Oggi h: 06:15 | Sereno | 17 | 15 | 88 | 1019 | 10 | S/SO 9.3 | |
| Oggi h: 05:45 | Sereno | 18 | 14 | 77 | 1018 | 10 | E/SE 7.4 | |
| Oggi h: 05:15 | Sereno | 20 | 15 | 72 | 1018 | 10 | N 9.3 | |
| Oggi h: 04:45 | Sereno | 19 | 14 | 72 | 1018 | 10 | N 5.5 | |
| Oggi h: 04:15 | Sereno | 20 | 14 | 68 | 1018 | 10 | N 14.8 | |
| Oggi h: 03:45 | Sereno | 20 | 13 | 64 | 1018 | 10 | N 20.3 | |
| Oggi h: 03:15 | Sereno | 20 | 14 | 68 | 1018 | 10 | N 18.5 | |
| Oggi h: 02:45 | Sereno | 21 | 15 | 68 | 1018 | 10 | N/NO 25.9 | |
| Oggi h: 02:15 | Molto Nuvoloso | 21 | 14 | 64 | 1018 | 10 | N/NO 33.3 | |
| Oggi h: 01:45 | Molto Nuvoloso | 20 | 14 | 68 | 1017 | 10 | N/NO 18.5 | |
| Oggi h: 01:15 | Pioggia | 20 | 15 | 72 | 1016 | 10 | N 11.1 | |
| Oggi h: 00:45 | Pioggia Temporale nelle vicinanze | 21 | 16 | 73 | 1016 | 10 | N/NO 13 | |
| Oggi h: 00:15 | Pioggia | 21 | 15 | 68 | 1016 | 10 | N 13 | |
| Ieri h: 23:45 | Temporale | 22 | 15 | 64 | 1016 | 10 | N 9.3 | |
| Ieri h: 23:15 | Temporale | 22 | 15 | 64 | 1015 | 10 | NE 16.7 | |
| Ieri h: 22:45 | Sereno | 26 | 13 | 44 | 1014 | 10 | E 7.4 | |
| Ieri h: 22:15 | Molto Nuvoloso | 27 | 14 | 44 | 1014 | 10 | N/NE 9.3 | |
| Ieri h: 21:45 | Sereno | 27 | 14 | 44 | 1013 | 10 | N/NE 13 | |
| Ieri h: 21:15 | Sereno | 26 | 14 | 47 | 1013 | 10 | N 9.3 | |
| Ieri h: 20:45 | Sereno | 27 | 13 | 42 | 1013 | 10 | N/NE 11.1 | |



